Terminal Aerodrome Forecast
Issued by NWS

Home | Current Version | Previous Version | Graphics & Text | Print | Product List | Glossary On
Versions: 1 2 3 4 5 6 7 8 9 10 11 12 13 14 15 16 17 18 19 20 21 22 23 24 25 26 27 28 29 30 31 32 33
000
FTUS43 KLOT 260349 AAC
TAFDPA
TAF AMD
KDPA 260349Z 2604/2624 28010KT P6SM SCT045 SCT060
     FM260600 31008KT P6SM SCT025
     FM260900 03012KT P6SM SCT005 BKN008
     FM261600 04013KT P6SM BKN015=

USA.gov is the U.S. government's official web portal to all federal, state and local government web resources and services.